Time,TemperatureF,DewpointF,PressureIn,WindDirection,WindDirectionDegrees,WindSpeedMPH,WindSpeedGustMPH,Humidity,HourlyPrecipIn,Conditions,Clouds,dailyrainin,SoftwareType,DateUTC
2015-03-26 00:11:00,45.9,43.0,29.96,South,173,8.0,12.0,89,0.00,,,0.00,weatherlink.com 1.10,2015-03-26 04:11:00,
2015-03-26 00:26:00,45.8,43.0,29.96,South,184,7.0,10.0,88,0.00,,,0.00,weatherlink.com 1.10,2015-03-26 04:26:00,
2015-03-26 00:41:00,45.5,42.0,29.95,South,184,4.0,8.0,88,0.00,,,0.00,weatherlink.com 1.10,2015-03-26 04:41:00,
2015-03-26 00:56:00,45.2,42.0,29.95,South,190,3.0,7.0,89,0.00,,,0.00,weatherlink.com 1.10,2015-03-26 04:56:00,
2015-03-26 01:11:00,45.2,42.0,29.95,SSW,202,3.0,6.0,89,0.00,,,0.00,weatherlink.com 1.10,2015-03-26 05:11:00,
2015-03-26 01:26:00,45.4,42.0,29.95,SW,223,4.0,7.0,89,0.00,,,0.00,weatherlink.com 1.10,2015-03-26 05:26:00,
2015-03-26 01:41:00,45.0,42.0,29.96,SSW,211,3.0,7.0,89,0.00,,,0.00,weatherlink.com 1.10,2015-03-26 05:41:00,
2015-03-26 01:56:00,44.9,42.0,29.95,SSW,213,3.0,5.0,90,0.00,,,0.00,weatherlink.com 1.10,2015-03-26 05:56:00,
2015-03-26 02:11:00,44.7,42.0,29.96,West,269,0.0,5.0,89,0.00,,,0.00,weatherlink.com 1.10,2015-03-26 06:11:00,
2015-03-26 02:26:00,44.7,42.0,29.96,WNW,297,2.0,6.0,90,0.00,,,0.00,weatherlink.com 1.10,2015-03-26 06:26:00,
2015-03-26 02:41:00,43.8,41.0,29.96,NNW,327,1.0,8.0,90,0.00,,,0.00,weatherlink.com 1.10,2015-03-26 06:41:00,
2015-03-26 02:57:00,42.9,41.0,29.95,NW,324,0.0,4.0,91,0.00,,,0.00,weatherlink.com 1.10,2015-03-26 06:57:00,
2015-03-26 03:12:00,42.3,41.0,29.96,WNW,292,3.0,7.0,93,0.00,,,0.00,weatherlink.com 1.10,2015-03-26 07:12:00,
2015-03-26 03:27:00,42.0,40.0,29.95,NW,316,2.0,8.0,94,0.00,,,0.00,weatherlink.com 1.10,2015-03-26 07:27:00,
2015-03-26 03:42:00,41.8,40.0,29.95,West,270,4.0,8.0,94,0.00,,,0.00,weatherlink.com 1.10,2015-03-26 07:42:00,
2015-03-26 03:57:00,41.6,40.0,29.94,WNW,300,3.0,10.0,94,0.00,,,0.00,weatherlink.com 1.10,2015-03-26 07:57:00,
2015-03-26 04:12:00,41.4,40.0,29.93,West,273,8.0,9.0,95,0.00,,,0.00,weatherlink.com 1.10,2015-03-26 08:12:00,
2015-03-26 04:27:00,41.3,40.0,29.91,WNW,297,2.0,7.0,95,0.00,,,0.00,weatherlink.com 1.10,2015-03-26 08:27:00,
2015-03-26 04:42:00,40.9,40.0,29.90,NW,326,4.0,9.0,95,0.00,,,0.00,weatherlink.com 1.10,2015-03-26 08:42:00,
2015-03-26 04:57:00,40.5,39.0,29.88,NNW,333,4.0,9.0,94,0.00,,,0.00,weatherlink.com 1.10,2015-03-26 08:57:00,
2015-03-26 05:12:00,40.2,39.0,29.86,North,11,4.0,7.0,94,0.00,,,0.00,weatherlink.com 1.10,2015-03-26 09:12:00,
2015-03-26 05:27:00,40.1,39.0,29.86,NE,45,0.0,4.0,94,0.00,,,0.00,weatherlink.com 1.10,2015-03-26 09:27:00,
2015-03-26 05:42:00,39.9,38.0,29.86,SSE,148,4.0,4.0,94,0.00,,,0.00,weatherlink.com 1.10,2015-03-26 09:42:00,
2015-03-26 05:57:00,39.6,38.0,29.86,SSE,167,2.0,5.0,94,0.00,,,0.00,weatherlink.com 1.10,2015-03-26 09:57:00,
2015-03-26 06:12:00,39.6,38.0,29.86,SSE,167,3.0,6.0,95,0.00,,,0.00,weatherlink.com 1.10,2015-03-26 10:12:00,
2015-03-26 06:27:00,39.6,38.0,29.86,SSE,167,0.0,3.0,95,0.00,,,0.00,weatherlink.com 1.10,2015-03-26 10:27:00,
2015-03-26 06:42:00,39.6,38.0,29.86,SSE,167,0.0,0.0,95,0.00,,,0.00,weatherlink.com 1.10,2015-03-26 10:42:00,
2015-03-26 06:57:00,39.6,38.0,29.86,SSE,167,0.0,3.0,95,0.00,,,0.00,weatherlink.com 1.10,2015-03-26 10:57:00,
2015-03-26 07:12:00,39.9,38.0,29.86,SSE,167,2.0,3.0,94,0.00,,,0.00,weatherlink.com 1.10,2015-03-26 11:12:00,
2015-03-26 07:27:00,38.4,37.0,29.84,NNE,13,2.0,5.0,94,0.00,,,0.00,weatherlink.com 1.10,2015-03-26 11:27:00,
2015-03-26 07:42:00,37.8,37.0,29.83,NNE,15,5.0,7.0,95,0.00,,,0.00,weatherlink.com 1.10,2015-03-26 11:42:00,
2015-03-26 07:57:00,36.8,36.0,29.82,North,350,7.0,9.0,95,0.00,,,0.00,weatherlink.com 1.10,2015-03-26 11:57:00,
2015-03-26 08:12:00,36.4,35.0,29.82,North,350,7.0,11.0,95,0.00,,,0.00,weatherlink.com 1.10,2015-03-26 12:12:00,
2015-03-26 08:27:00,35.9,35.0,29.84,North,360,7.0,14.0,95,0.01,,,0.01,weatherlink.com 1.10,2015-03-26 12:27:00,
2015-03-26 08:42:00,35.7,35.0,29.84,NNW,348,10.0,19.0,96,0.03,,,0.03,weatherlink.com 1.10,2015-03-26 12:42:00,
2015-03-26 08:57:00,35.4,34.0,29.85,North,5,10.0,13.0,96,0.06,,,0.06,weatherlink.com 1.10,2015-03-26 12:57:00,
2015-03-26 09:13:00,35.1,34.0,29.83,NNE,24,7.0,12.0,96,0.09,,,0.09,weatherlink.com 1.10,2015-03-26 13:13:00,
2015-03-26 09:28:00,35.2,34.0,29.82,NNE,20,4.0,11.0,96,0.09,,,0.10,weatherlink.com 1.10,2015-03-26 13:28:00,
2015-03-26 09:43:00,35.2,34.0,29.82,NE,49,5.0,8.0,96,0.08,,,0.11,weatherlink.com 1.10,2015-03-26 13:43:00,
2015-03-26 09:58:00,35.4,34.0,29.81,NE,37,3.0,6.0,96,0.07,,,0.13,weatherlink.com 1.10,2015-03-26 13:58:00,
2015-03-26 10:13:00,35.2,34.0,29.80,NNE,30,4.0,6.0,96,0.06,,,0.15,weatherlink.com 1.10,2015-03-26 14:13:00,
2015-03-26 10:28:00,35.2,34.0,29.79,ENE,57,3.0,8.0,96,0.05,,,0.15,weatherlink.com 1.10,2015-03-26 14:28:00,
2015-03-26 10:43:00,35.2,34.0,29.80,NNE,27,3.0,5.0,96,0.07,,,0.18,weatherlink.com 1.10,2015-03-26 14:43:00,
2015-03-26 10:58:00,35.0,34.0,29.79,NNE,15,4.0,8.0,96,0.07,,,0.20,weatherlink.com 1.10,2015-03-26 14:58:00,
2015-03-26 11:13:00,35.3,34.0,29.79,NNE,24,4.0,5.0,96,0.06,,,0.21,weatherlink.com 1.10,2015-03-26 15:13:00,
2015-03-26 11:28:00,35.3,34.0,29.78,NNE,31,2.0,5.0,96,0.08,,,0.23,weatherlink.com 1.10,2015-03-26 15:28:00,
2015-03-26 11:43:00,35.6,35.0,29.78,NE,34,0.0,5.0,96,0.07,,,0.25,weatherlink.com 1.10,2015-03-26 15:43:00,
2015-03-26 11:58:00,36.2,35.0,29.78,NE,34,1.0,3.0,96,0.06,,,0.26,weatherlink.com 1.10,2015-03-26 15:58:00,
2015-03-26 12:13:00,36.6,36.0,29.77,NE,34,2.0,3.0,97,0.06,,,0.27,weatherlink.com 1.10,2015-03-26 16:13:00,
2015-03-26 12:28:00,36.6,36.0,29.76,NE,44,3.0,6.0,96,0.05,,,0.28,weatherlink.com 1.10,2015-03-26 16:28:00,
2015-03-26 12:43:00,36.1,35.0,29.76,North,355,3.0,6.0,96,0.03,,,0.28,weatherlink.com 1.10,2015-03-26 16:43:00,
2015-03-26 12:58:00,36.2,35.0,29.76,NNE,19,2.0,6.0,96,0.02,,,0.28,weatherlink.com 1.10,2015-03-26 16:58:00,
2015-03-26 13:13:00,36.1,35.0,29.76,North,355,3.0,5.0,96,0.01,,,0.28,weatherlink.com 1.10,2015-03-26 17:13:00,
2015-03-26 13:28:00,36.0,35.0,29.76,NW,315,2.0,4.0,96,0.01,,,0.29,weatherlink.com 1.10,2015-03-26 17:28:00,
2015-03-26 13:43:00,35.9,35.0,29.75,WNW,303,0.0,4.0,96,0.01,,,0.29,weatherlink.com 1.10,2015-03-26 17:43:00,
2015-03-26 13:58:00,36.2,35.0,29.76,WNW,303,1.0,4.0,96,0.01,,,0.29,weatherlink.com 1.10,2015-03-26 17:58:00,
2015-03-26 14:13:00,36.4,35.0,29.75,NNW,331,3.0,4.0,96,0.01,,,0.29,weatherlink.com 1.10,2015-03-26 18:13:00,
2015-03-26 14:28:00,36.6,36.0,29.75,WNW,295,2.0,4.0,96,0.00,,,0.29,weatherlink.com 1.10,2015-03-26 18:28:00,
2015-03-26 14:43:00,36.4,35.0,29.75,NW,324,5.0,7.0,96,0.00,,,0.29,weatherlink.com 1.10,2015-03-26 18:43:00,
2015-03-26 14:58:00,36.4,35.0,29.75,WNW,301,4.0,10.0,96,0.00,,,0.29,weatherlink.com 1.10,2015-03-26 18:58:00,
2015-03-26 15:13:00,36.1,35.0,29.75,North,5,7.0,9.0,96,0.00,,,0.29,weatherlink.com 1.10,2015-03-26 19:13:00,
2015-03-26 15:28:00,34.6,34.0,29.75,North,5,7.0,11.0,96,0.00,,,0.29,weatherlink.com 1.10,2015-03-26 19:28:00,
2015-03-26 15:43:00,34.1,33.0,29.76,NW,313,7.0,10.0,96,0.00,,,0.29,weatherlink.com 1.10,2015-03-26 19:43:00,
2015-03-26 15:58:00,33.4,32.0,29.75,North,5,6.0,11.0,96,0.00,,,0.29,weatherlink.com 1.10,2015-03-26 19:58:00,
2015-03-26 16:13:00,33.4,32.0,29.75,NNE,14,2.0,6.0,96,0.01,,,0.30,weatherlink.com 1.10,2015-03-26 20:13:00,
2015-03-26 16:28:00,33.7,33.0,29.74,NNE,31,0.0,4.0,96,0.01,,,0.30,weatherlink.com 1.10,2015-03-26 20:28:00,
2015-03-26 16:43:00,33.7,33.0,29.76,NW,326,2.0,6.0,96,0.01,,,0.30,weatherlink.com 1.10,2015-03-26 20:43:00,
2015-03-26 16:58:00,33.4,32.0,29.78,North,355,6.0,10.0,96,0.01,,,0.30,weatherlink.com 1.10,2015-03-26 20:58:00,
2015-03-26 17:13:00,33.2,32.0,29.79,NW,304,6.0,9.0,96,0.00,,,0.30,weatherlink.com 1.10,2015-03-26 21:13:00,
2015-03-26 17:28:00,33.0,32.0,29.79,NW,308,4.0,9.0,96,0.00,,,0.30,weatherlink.com 1.10,2015-03-26 21:28:00,
2015-03-26 17:43:00,32.7,32.0,29.79,NNW,329,4.0,9.0,96,0.00,,,0.30,weatherlink.com 1.10,2015-03-26 21:43:00,
2015-03-26 17:58:00,32.7,32.0,29.78,NW,310,3.0,7.0,96,0.00,,,0.30,weatherlink.com 1.10,2015-03-26 21:58:00,
2015-03-26 18:13:00,32.8,32.0,29.77,North,349,3.0,5.0,96,0.00,,,0.30,weatherlink.com 1.10,2015-03-26 22:13:00,
2015-03-26 18:28:00,32.9,32.0,29.79,WNW,298,6.0,7.0,96,0.00,,,0.30,weatherlink.com 1.10,2015-03-26 22:28:00,
2015-03-26 18:43:00,32.9,32.0,29.80,NW,313,3.0,6.0,96,0.00,,,0.30,weatherlink.com 1.10,2015-03-26 22:43:00,
2015-03-26 18:58:00,32.8,32.0,29.81,NNW,329,4.0,8.0,96,0.00,,,0.30,weatherlink.com 1.10,2015-03-26 22:58:00,
2015-03-26 19:13:00,32.8,32.0,29.80,NNW,340,5.0,8.0,96,0.00,,,0.30,weatherlink.com 1.10,2015-03-26 23:13:00,
2015-03-26 19:28:00,32.7,32.0,29.82,West,275,5.0,7.0,96,0.00,,,0.30,weatherlink.com 1.10,2015-03-26 23:28:00,
2015-03-26 19:43:00,32.7,32.0,29.82,WNW,288,3.0,5.0,96,0.00,,,0.30,weatherlink.com 1.10,2015-03-26 23:43:00,
2015-03-26 19:58:00,32.6,32.0,29.83,West,279,2.0,6.0,96,0.00,,,0.30,weatherlink.com 1.10,2015-03-26 23:58:00,
2015-03-26 20:13:00,32.6,32.0,29.83,West,272,2.0,6.0,96,0.00,,,0.30,weatherlink.com 1.10,2015-03-27 00:13:00,
2015-03-26 20:28:00,32.6,32.0,29.83,West,278,3.0,8.0,96,0.00,,,0.30,weatherlink.com 1.10,2015-03-27 00:28:00,
2015-03-26 20:43:00,32.5,32.0,29.84,WNW,282,8.0,8.0,96,0.00,,,0.30,weatherlink.com 1.10,2015-03-27 00:43:00,
2015-03-26 20:58:00,32.5,32.0,29.83,West,273,2.0,7.0,96,0.00,,,0.30,weatherlink.com 1.10,2015-03-27 00:58:00,
2015-03-26 21:13:00,32.4,31.0,29.84,West,265,2.0,6.0,96,0.00,,,0.30,weatherlink.com 1.10,2015-03-27 01:13:00,
2015-03-26 21:29:00,32.4,31.0,29.85,SW,227,1.0,4.0,96,0.00,,,0.30,weatherlink.com 1.10,2015-03-27 01:29:00,
2015-03-26 21:43:00,32.4,31.0,29.84,WSW,248,2.0,6.0,96,0.00,,,0.30,weatherlink.com 1.10,2015-03-27 01:43:00,
2015-03-26 21:58:00,32.3,31.0,29.84,West,277,2.0,6.0,96,0.00,,,0.30,weatherlink.com 1.10,2015-03-27 01:58:00,
2015-03-26 22:13:00,32.3,31.0,29.84,SW,236,5.0,9.0,96,0.00,,,0.30,weatherlink.com 1.10,2015-03-27 02:13:00,